Terminal Aerodrome Forecast
Issued by NWS Sterling, VA

Home | Current Version | Previous Version | Text Only | Print | Product List | Glossary On
Versions: 1 2 3 4 5 6 7 8 9 10 11 12 13 14
000
FTUS41 KLWX 241739
TAFCHO
TAF
KCHO 241739Z 2418/2518 17005KT P6SM FEW050
     FM250000 16004KT P6SM SCT070
     FM250300 VRB03KT P6SM SCT090
     FM250900 VRB03KT 5SM BR SCT070
     FM251200 20004KT P6SM SCT070=

USA.gov is the U.S. government's official web portal to all federal, state and local government web resources and services.